Time;durP1;ratioP1;P1;durP2;ratioP2;P2;SDS_P1;SDS_P2;PMS_P1;PMS_P2;Temp;Humidity;BMP_temperature;BMP_pressure;BME280_temperature;BME280_humidity;BME280_pressure;Samples;Min_cycle;Max_cycle;Signal;HPM_P1;HPM_P2
2022/08/19 00:00:51;;;;;;;11.60;8.90;;;;;;;17.25;92.28;97054.86;110218;1247;69403;-75
2022/08/19 00:03:20;;;;;;;10.00;8.50;;;;;;;17.20;93.65;97049.92;110226;1248;68657;-74
2022/08/19 00:05:50;;;;;;;;;;;;;;;17.17;94.22;97046.38;110036;1250;59679;-74
2022/08/19 00:08:20;;;;;;;;;;;;;;;17.13;94.32;97045.08;110146;1247;59710;-75
2022/08/19 00:10:49;;;;;;;11.30;8.80;;;;;;;17.09;93.16;97047.08;110132;1248;70784;-74
2022/08/19 00:13:19;;;;;;;12.80;9.60;;;;;;;17.08;93.81;97047.38;110223;1250;68805;-74
2022/08/19 00:15:49;;;;;;;11.90;8.90;;;;;;;17.07;94.85;97047.30;110128;1250;69156;-74
2022/08/19 00:18:19;;;;;;;11.50;8.60;;;;;;;17.07;94.42;97049.20;110166;1247;59712;-74
2022/08/19 00:20:49;;;;;;;11.90;9.00;;;;;;;17.08;95.31;97051.96;110111;1250;59654;-71
2022/08/19 00:23:19;;;;;;;14.50;10.30;;;;;;;17.09;95.90;97049.55;110181;1247;71767;-73
2022/08/19 00:25:48;;;;;;;;;;;;;;;17.09;96.02;97048.63;110179;1247;69415;-73
2022/08/19 00:28:20;;;;;;;11.60;9.30;;;;;;;17.08;94.95;97046.52;110099;1248;68544;-75
2022/08/19 00:30:51;;;;;;;13.90;10.70;;;;;;;17.04;95.05;97054.77;110091;1250;59753;-74
2022/08/19 00:33:23;;;;;;;15.40;10.50;;;;;;;17.00;95.59;97059.50;110182;1247;59630;-73
2022/08/19 00:35:52;;;;;;;13.20;9.50;;;;;;;16.94;93.77;97057.14;110095;1247;71370;-74
2022/08/19 00:38:23;;;;;;;14.20;9.60;;;;;;;16.91;95.57;97061.14;110084;1247;69449;-73
2022/08/19 00:41:06;;;;;;;13.60;9.40;;;;;;;16.90;96.50;97059.66;110152;1248;69227;-74
2022/08/19 00:43:36;;;;;;;11.40;8.20;;;;;;;16.90;96.48;97065.46;110099;1250;59802;-75
2022/08/19 00:46:05;;;;;;;12.80;9.70;;;;;;;16.89;95.60;97067.67;109981;1250;59646;-75
2022/08/19 00:48:36;;;;;;;10.20;7.90;;;;;;;16.88;94.85;97069.73;110007;1250;71565;-74
2022/08/19 00:51:06;;;;;;;10.80;8.90;;;;;;;16.87;94.28;97076.42;110173;1247;69637;-73
2022/08/19 00:53:36;;;;;;;12.60;10.30;;;;;;;16.86;93.64;97088.88;110239;1248;68639;-74
2022/08/19 00:56:08;;;;;;;11.50;8.30;;;;;;;16.81;92.05;97091.01;110230;1248;59712;-72
2022/08/19 00:58:39;;;;;;;10.90;8.00;;;;;;;16.76;92.14;97090.39;110198;1248;59677;-74
2022/08/19 01:01:10;;;;;;;12.10;9.20;;;;;;;16.73;92.93;97088.80;110152;1248;70590;-74
2022/08/19 01:03:40;;;;;;;11.30;8.20;;;;;;;16.70;94.25;97092.78;109792;1251;68686;-72
2022/08/19 01:06:26;;;;;;;10.50;8.00;;;;;;;16.68;94.59;97091.79;109872;1248;68598;-75
2022/08/19 01:08:56;;;;;;;12.10;9.50;;;;;;;16.65;94.53;97086.26;110034;1250;59678;-74
2022/08/19 01:11:34;;;;;;;11.30;9.60;;;;;;;16.63;95.30;97082.08;109943;1248;59757;-74
2022/08/19 01:14:05;;;;;;;12.00;8.30;;;;;;;16.61;94.57;97081.12;109771;1250;70643;-71
2022/08/19 01:16:39;;;;;;;10.90;7.70;;;;;;;16.59;93.00;97077.55;109754;1251;68648;-74
2022/08/19 01:19:19;;;;;;;11.10;8.40;;;;;;;16.58;94.23;97083.95;110037;1248;68649;-73
2022/08/19 01:22:02;;;;;;;13.00;8.60;;;;;;;16.57;95.82;97087.42;110092;1248;59721;-73
2022/08/19 01:24:45;;;;;;;11.70;9.00;;;;;;;16.54;96.10;97083.23;109647;1250;59680;-74
2022/08/19 01:27:19;;;;;;;11.70;9.50;;;;;;;16.50;95.41;97084.98;110021;1251;70724;-74
2022/08/19 01:29:54;;;;;;;13.20;9.50;;;;;;;16.49;95.50;97083.38;110096;1249;68819;-73
2022/08/19 01:32:26;;;;;;;11.70;7.80;;;;;;;16.48;93.37;97081.64;109988;1250;69251;-73
2022/08/19 01:35:04;;;;;;;10.80;8.60;;;;;;;16.49;91.44;97093.91;109877;1250;59840;-71
2022/08/19 01:37:57;;;;;;;9.90;7.70;;;;;;;16.47;91.62;97097.59;109855;1251;59661;-73
2022/08/19 01:40:33;;;;;;;12.30;8.70;;;;;;;16.45;92.37;97101.19;110087;1251;70776;-73
2022/08/19 01:43:05;;;;;;;10.80;8.00;;;;;;;16.43;92.36;97097.34;109929;1251;68860;-71
2022/08/19 01:45:39;;;;;;;12.20;9.10;;;;;;;16.39;90.95;97100.38;109927;1248;69403;-72
2022/08/19 01:48:13;;;;;;;14.80;9.30;;;;;;;16.36;92.51;97101.08;110096;1248;59662;-73
2022/08/19 01:50:47;;;;;;;12.90;10.40;;;;;;;16.32;95.81;97103.38;109976;1250;59850;-72
2022/08/19 01:53:19;;;;;;;12.60;9.10;;;;;;;16.28;94.35;97100.55;110160;1250;70700;-69
2022/08/19 01:55:55;;;;;;;12.50;9.90;;;;;;;16.25;92.40;97099.06;110130;1247;69743;-74
2022/08/19 01:58:42;;;;;;;14.20;10.50;;;;;;;16.24;96.00;97101.36;110012;1250;69247;-71
2022/08/19 02:01:13;;;;;;;15.60;11.60;;;;;;;16.21;97.43;97105.48;110005;1250;59696;-72
2022/08/19 02:03:45;;;;;;;14.40;10.40;;;;;;;16.20;99.24;97103.84;109771;1250;59653;-71
2022/08/19 02:06:17;;;;;;;12.80;10.60;;;;;;;16.18;95.43;97105.98;109950;1250;71371;-71
2022/08/19 02:08:56;;;;;;;15.00;11.30;;;;;;;16.20;95.04;97111.79;110022;1250;68631;-71
2022/08/19 02:11:35;;;;;;;14.70;10.60;;;;;;;16.22;98.01;97114.59;110023;1250;67904;-71
2022/08/19 02:14:08;;;;;;;13.70;9.70;;;;;;;16.21;98.17;97111.70;110072;1250;59810;-72
2022/08/19 02:16:39;;;;;;;12.70;9.70;;;;;;;16.20;96.28;97120.69;110126;1250;59693;-71
2022/08/19 02:19:12;;;;;;;13.60;9.50;;;;;;;16.21;94.41;97121.39;110071;1247;71511;-72
2022/08/19 02:21:43;;;;;;;12.80;10.00;;;;;;;16.21;92.94;97120.63;110000;1251;69431;-71
2022/08/19 02:24:16;;;;;;;12.00;9.10;;;;;;;16.21;95.13;97117.30;109993;1250;69903;-72
2022/08/19 02:26:47;;;;;;;13.80;10.90;;;;;;;16.22;93.42;97115.30;110073;1248;59853;-71
2022/08/19 02:29:17;;;;;;;15.10;10.40;;;;;;;16.19;93.77;97115.58;109682;1251;59676;-72
2022/08/19 02:31:48;;;;;;;13.90;10.30;;;;;;;16.16;93.76;97114.81;109642;1250;71433;-72
2022/08/19 02:34:19;;;;;;;14.60;9.80;;;;;;;16.13;93.30;97114.94;110038;1250;68483;-72
2022/08/19 02:36:51;;;;;;;13.20;9.00;;;;;;;16.12;93.11;97120.88;109668;1251;69915;-72
2022/08/19 02:39:23;;;;;;;16.40;10.60;;;;;;;16.10;93.18;97119.16;109806;1250;59683;-72
2022/08/19 02:41:53;;;;;;;16.80;13.40;;;;;;;16.10;94.10;97119.46;109694;1251;59753;-72
2022/08/19 02:44:23;;;;;;;;;;;;;;;16.08;97.41;97119.17;110146;1249;70695;-72
2022/08/19 02:47:00;;;;;;;12.20;9.30;;;;;;;16.07;95.74;97120.81;110125;1249;69225;-73
2022/08/19 02:49:31;;;;;;;12.50;9.60;;;;;;;16.06;95.10;97122.89;110585;1247;69407;-72
2022/08/19 02:52:03;;;;;;;14.00;11.10;;;;;;;16.05;95.21;97126.14;110307;1247;59855;-71
2022/08/19 02:54:34;;;;;;;15.60;11.90;;;;;;;16.01;95.10;97127.20;109791;1248;59709;-72
2022/08/19 02:57:06;;;;;;;13.70;11.00;;;;;;;15.99;98.00;97129.02;109901;1251;71519;-71
2022/08/19 02:59:35;;;;;;;16.30;11.40;;;;;;;15.96;99.58;97128.61;110067;1248;68824;-72
2022/08/19 03:02:05;;;;;;;14.20;10.20;;;;;;;15.94;99.78;97126.15;109844;1251;68718;-72
2022/08/19 03:04:35;;;;;;;13.80;10.30;;;;;;;15.95;97.08;97128.90;110003;1250;59652;-72
2022/08/19 03:07:07;;;;;;;14.70;11.30;;;;;;;15.94;99.63;97128.42;110050;1250;59749;-69
2022/08/19 03:09:40;;;;;;;13.80;11.10;;;;;;;15.93;99.86;97124.52;110008;1247;70846;-72
2022/08/19 03:12:11;;;;;;;12.00;9.30;;;;;;;15.92;98.61;97125.11;109706;1250;67706;-70
2022/08/19 03:14:41;;;;;;;12.90;9.80;;;;;;;15.93;96.46;97119.74;109958;1250;69522;-71
2022/08/19 03:17:11;;;;;;;13.30;10.50;;;;;;;15.94;96.22;97125.42;110007;1248;59819;-71
2022/08/19 03:19:42;;;;;;;11.80;9.60;;;;;;;15.95;96.05;97128.00;109982;1249;59739;-71
2022/08/19 03:22:12;;;;;;;12.70;9.40;;;;;;;15.95;95.78;97128.35;109719;1250;71382;-72
2022/08/19 03:24:43;;;;;;;14.10;10.70;;;;;;;15.95;95.87;97126.92;109903;1247;69470;-72
2022/08/19 03:27:13;;;;;;;12.30;9.10;;;;;;;15.95;98.18;97129.56;110021;1249;69316;-72
2022/08/19 03:29:43;;;;;;;10.90;9.00;;;;;;;15.95;98.04;97132.52;110026;1250;59768;-72
2022/08/19 03:32:12;;;;;;;;;;;;;;;15.95;97.95;97138.39;110027;1248;60039;-72
2022/08/19 03:35:02;;;;;;;15.00;11.20;;;;;;;15.93;98.61;97134.47;109787;1250;70802;-71
2022/08/19 03:37:31;;;;;;;16.50;12.70;;;;;;;15.94;99.16;97136.00;110007;1250;69493;-72
2022/08/19 03:40:02;;;;;;;14.40;11.60;;;;;;;15.97;99.65;97135.17;109980;1251;69436;-73
2022/08/19 03:42:31;;;;;;;16.70;11.90;;;;;;;15.99;98.84;97138.95;110017;1250;59703;-73
2022/08/19 03:45:17;;;;;;;14.00;10.30;;;;;;;16.05;100.00;97146.61;110020;1250;59681;-72
2022/08/19 03:47:47;;;;;;;11.90;9.00;;;;;;;16.08;98.22;97144.46;110037;1251;71488;-71
2022/08/19 03:50:19;;;;;;;15.30;11.70;;;;;;;16.10;97.57;97145.66;110257;1250;68933;-73
2022/08/19 03:52:52;;;;;;;16.70;12.80;;;;;;;16.13;99.49;97145.54;110027;1250;68378;-73
2022/08/19 03:55:22;;;;;;;17.40;13.10;;;;;;;16.16;98.55;97148.97;110066;1249;59729;-72
2022/08/19 03:57:52;;;;;;;14.60;11.10;;;;;;;16.17;98.54;97149.67;110058;1250;59629;-72
2022/08/19 04:00:26;;;;;;;13.90;10.90;;;;;;;16.19;97.97;97152.64;110049;1250;70729;-69
2022/08/19 04:02:55;;;;;;;14.90;11.20;;;;;;;16.20;97.19;97149.04;110073;1248;69291;-72
2022/08/19 04:05:29;;;;;;;13.30;10.30;;;;;;;16.20;96.70;97149.70;110040;1248;68524;-71
2022/08/19 04:07:58;;;;;;;;;;;;;;;16.21;96.69;97151.91;110178;1249;59688;-71
2022/08/19 04:10:28;;;;;;;14.90;10.50;;;;;;;16.26;97.64;97155.48;109701;1250;59635;-72
2022/08/19 04:12:58;;;;;;;13.10;11.20;;;;;;;16.39;97.96;97161.58;109807;1249;71589;-71
2022/08/19 04:15:31;;;;;;;13.40;10.20;;;;;;;16.58;98.26;97164.94;109827;1251;68488;-71
2022/08/19 04:18:00;;;;;;;12.50;10.40;;;;;;;16.81;98.02;97162.80;109939;1250;69404;-70
2022/08/19 04:20:29;;;;;;;12.00;10.30;;;;;;;17.01;97.02;97156.02;109829;1251;59695;-73
2022/08/19 04:22:59;;;;;;;13.50;9.50;;;;;;;17.21;96.47;97153.19;109687;1251;59658;-72
2022/08/19 04:25:28;;;;;;;11.80;8.90;;;;;;;17.41;95.89;97148.38;109713;1249;71209;-72
2022/08/19 04:27:58;;;;;;;;;;;;;;;17.57;94.79;97143.83;109864;1251;69567;-72
2022/08/19 04:30:26;;;;;;;12.80;8.80;;;;;;;17.68;93.83;97143.13;110011;1250;69446;-72
2022/08/19 04:32:55;;;;;;;13.70;9.30;;;;;;;17.79;92.82;97143.30;110083;1248;59717;-72
2022/08/19 04:35:24;;;;;;;12.30;8.60;;;;;;;17.86;92.50;97143.77;110036;1248;59703;-72
2022/08/19 04:37:53;;;;;;;10.80;8.20;;;;;;;17.96;92.18;97141.40;110054;1248;71546;-71
2022/08/19 04:43:13;;;;;;;11.70;8.90;;;;;;;18.33;90.60;97141.38;110040;1247;68655;-73
2022/08/19 04:45:46;;;;;;;10.70;8.00;;;;;;;18.53;90.14;97138.20;110319;1248;59770;-73
2022/08/19 04:48:15;;;;;;;9.10;7.30;;;;;;;18.79;89.57;97141.46;110333;1247;59670;-72
2022/08/19 04:50:57;;;;;;;7.60;6.30;;;;;;;19.19;91.66;97136.29;110021;1250;70743;-72
2022/08/19 04:53:31;;;;;;;8.90;7.20;;;;;;;19.59;90.95;97134.41;108371;1249;2171449;-72
2022/08/19 04:56:12;;;;;;;9.10;6.80;;;;;;;20.02;90.33;97142.37;109801;1251;69470;-71
2022/08/19 04:58:43;;;;;;;8.40;6.80;;;;;;;20.41;89.94;97147.73;109793;1251;59807;-72
2022/08/19 05:01:17;;;;;;;9.30;6.80;;;;;;;20.79;87.67;97157.08;109740;1250;59634;-73
2022/08/19 05:03:46;;;;;;;7.50;6.70;;;;;;;21.12;83.17;97156.89;109667;1250;70884;-73
2022/08/19 05:06:19;;;;;;;9.00;7.30;;;;;;;21.35;77.39;97154.42;109767;1251;69220;-74
2022/08/19 05:08:48;;;;;;;6.90;6.10;;;;;;;21.58;76.34;97154.71;109822;1250;69461;-73
2022/08/19 05:11:21;;;;;;;;;;;;;;;21.84;78.31;97151.73;109714;1251;59740;-74
2022/08/19 05:13:54;;;;;;;8.60;7.20;;;;;;;21.90;72.90;97152.41;109739;1251;59606;-74
2022/08/19 05:16:26;;;;;;;7.90;6.70;;;;;;;22.17;76.12;97151.13;109823;1251;71609;-74
2022/08/19 05:24:33;;;;;;;8.90;7.90;;;;;;;22.16;70.63;97166.20;109862;1251;59754;-72
2022/08/19 05:27:05;;;;;;;9.10;7.40;;;;;;;22.20;71.60;97167.13;109782;1251;59786;-73
2022/08/19 05:29:35;;;;;;;8.20;7.30;;;;;;;22.44;72.21;97172.52;109822;1250;70569;-73
2022/08/19 05:32:10;;;;;;;9.50;6.60;;;;;;;22.76;72.24;97172.16;109902;1250;68707;-71
2022/08/19 05:34:39;;;;;;;8.50;6.80;;;;;;;23.21;71.00;97171.84;109650;1250;68769;-72
2022/08/19 05:37:08;;;;;;;9.10;7.10;;;;;;;23.46;67.96;97169.47;109843;1251;59664;-72
2022/08/19 05:39:40;;;;;;;8.00;6.60;;;;;;;23.69;68.12;97171.80;109814;1251;59683;-75
2022/08/19 05:42:11;;;;;;;7.10;6.40;;;;;;;24.09;68.82;97163.52;109718;1251;71453;-74
2022/08/19 05:44:43;;;;;;;10.40;7.20;;;;;;;24.48;68.00;97164.70;110261;1251;70104;-72
2022/08/19 05:47:14;;;;;;;9.00;8.10;;;;;;;24.75;65.43;97167.25;109838;1250;69552;-72
2022/08/19 05:49:43;;;;;;;8.30;6.80;;;;;;;24.70;63.75;97169.80;109975;1250;59673;-72
2022/08/19 05:52:15;;;;;;;9.70;8.50;;;;;;;24.56;62.38;97172.39;109801;1251;59708;-71
2022/08/19 05:54:47;;;;;;;8.80;7.20;;;;;;;24.39;62.25;97172.59;109944;1248;71386;-72
2022/08/19 05:57:19;;;;;;;8.20;6.40;;;;;;;24.28;62.95;97171.00;110060;1248;70086;-71
2022/08/19 05:59:48;;;;;;;9.40;7.60;;;;;;;24.53;62.62;97173.84;110142;1248;69448;-72
2022/08/19 06:02:27;;;;;;;9.40;7.10;;;;;;;24.79;61.31;97173.45;110007;1248;59677;-73
2022/08/19 06:04:56;;;;;;;8.30;7.10;;;;;;;24.67;59.58;97179.37;110199;1247;59698;-70
2022/08/19 06:07:24;;;;;;;9.60;8.00;;;;;;;24.86;59.99;97184.09;110185;1247;71792;-72
2022/08/19 06:09:53;;;;;;;;;;;;;;;25.04;58.26;97180.67;109933;1251;68777;-72
2022/08/19 06:12:32;;;;;;;8.10;6.70;;;;;;;25.09;58.58;97183.23;110247;1248;68929;-72
2022/08/19 06:15:07;;;;;;;9.30;8.10;;;;;;;25.31;57.89;97181.61;110066;1247;59691;-74
2022/08/19 06:17:36;;;;;;;7.60;6.80;;;;;;;25.21;57.55;97182.21;110188;1247;59693;-72
2022/08/19 06:20:08;;;;;;;;;;;;;;;25.45;57.10;97177.29;110134;1247;71669;-74
2022/08/19 06:22:39;;;;;;;10.50;6.90;;;;;;;25.63;56.73;97171.58;109927;1248;68743;-72
2022/08/19 06:25:09;;;;;;;9.50;7.20;;;;;;;25.69;55.42;97171.02;110146;1248;68491;-74
2022/08/19 06:27:38;;;;;;;7.30;6.60;;;;;;;25.81;55.03;97171.87;110226;1247;59745;-74
2022/08/19 06:30:27;;;;;;;7.60;6.50;;;;;;;25.90;55.62;97168.27;110047;1251;59691;-73
2022/08/19 06:32:59;;;;;;;7.40;6.70;;;;;;;26.34;55.39;97169.59;110134;1247;70886;-71
2022/08/19 06:35:29;;;;;;;8.50;6.40;;;;;;;26.73;52.56;97167.16;110121;1247;69334;-73
2022/08/19 06:37:59;;;;;;;7.90;6.50;;;;;;;26.99;51.84;97168.23;110087;1248;69454;-73
2022/08/19 06:40:28;;;;;;;6.60;5.90;;;;;;;27.45;52.97;97169.10;110498;1251;59691;-75
2022/08/19 06:42:59;;;;;;;9.00;6.50;;;;;;;27.61;50.12;97168.31;110306;1248;59694;-73
2022/08/19 06:45:30;;;;;;;8.00;6.30;;;;;;;27.67;50.64;97164.58;110234;1248;70972;-73
2022/08/19 06:48:03;;;;;;;7.00;5.90;;;;;;;27.72;50.25;97162.23;110152;1247;69076;-74
2022/08/19 06:50:31;;;;;;;7.70;6.90;;;;;;;28.07;49.52;97158.36;110112;1247;69258;-71
2022/08/19 06:53:05;;;;;;;8.30;6.30;;;;;;;28.12;49.31;97154.35;110070;1248;59680;-73
2022/08/19 06:55:34;;;;;;;7.10;6.20;;;;;;;28.02;48.75;97153.71;110305;1248;59771;-75
2022/08/19 06:58:05;;;;;;;8.20;6.50;;;;;;;28.05;49.03;97149.78;110535;1247;71627;-74
2022/08/19 07:00:33;;;;;;;9.00;7.20;;;;;;;28.26;48.67;97147.84;110210;1248;69236;-72
2022/08/19 07:03:03;;;;;;;8.50;6.50;;;;;;;28.20;48.95;97147.17;110345;1247;68762;-75
2022/08/19 07:05:41;;;;;;;7.30;6.50;;;;;;;28.35;48.30;97148.69;110297;1247;59692;-74
2022/08/19 07:08:13;;;;;;;7.30;6.30;;;;;;;28.28;47.74;97145.80;109948;1248;59691;-72
2022/08/19 07:10:44;;;;;;;8.30;7.30;;;;;;;28.92;47.11;97149.56;110165;1247;72232;-73
2022/08/19 07:13:14;;;;;;;7.30;6.50;;;;;;;29.14;46.04;97147.64;109923;1249;70101;-74
2022/08/19 07:15:43;;;;;;;9.20;6.90;;;;;;;29.24;46.52;97149.41;110160;1247;69449;-73
2022/08/19 07:18:13;;;;;;;7.40;6.60;;;;;;;29.61;46.48;97143.80;110155;1247;59726;-71
2022/08/19 07:20:42;;;;;;;;;;;;;;;29.95;45.06;97142.73;110197;1248;59709;-72
2022/08/19 07:23:14;;;;;;;9.50;7.20;;;;;;;29.86;44.63;97141.16;110152;1248;72245;-71
2022/08/19 07:25:44;;;;;;;8.20;6.90;;;;;;;30.12;44.49;97139.39;110141;1248;69378;-73
2022/08/19 07:28:22;;;;;;;8.30;7.00;;;;;;;30.22;44.09;97136.98;109804;1250;68078;-76
2022/08/19 07:30:52;;;;;;;8.00;6.40;;;;;;;30.36;43.83;97144.44;110189;1247;59688;-74
2022/08/19 07:33:22;;;;;;;7.70;6.10;;;;;;;30.66;44.13;97147.90;109877;1247;59697;-72
2022/08/19 07:35:55;;;;;;;7.00;6.10;;;;;;;31.15;43.40;97146.16;110228;1247;71354;-74
2022/08/19 07:38:23;;;;;;;;;;;;;;;31.20;41.16;97143.91;110308;1247;68559;-73
2022/08/19 07:40:54;;;;;;;8.10;7.30;;;;;;;31.30;41.29;97143.04;110024;1249;68637;-71
2022/08/19 07:43:24;;;;;;;6.10;5.60;;;;;;;31.48;41.34;97135.65;110061;1247;59714;-73
2022/08/19 07:46:02;;;;;;;6.70;6.10;;;;;;;31.68;40.12;97134.48;109887;1248;59704;-72
2022/08/19 07:48:32;;;;;;;6.70;6.10;;;;;;;32.01;39.24;97131.79;109736;1250;71695;-72
2022/08/19 07:51:04;;;;;;;7.40;6.30;;;;;;;32.10;38.20;97131.91;109728;1250;69452;-69
2022/08/19 07:53:34;;;;;;;6.60;5.90;;;;;;;32.15;37.43;97132.50;109870;1248;69572;-70
2022/08/19 07:56:07;;;;;;;7.20;6.50;;;;;;;32.09;37.53;97133.64;110047;1247;59764;-70
2022/08/19 07:58:40;;;;;;;6.80;5.90;;;;;;;32.19;37.73;97134.77;110080;1247;59736;-70
2022/08/19 08:01:15;;;;;;;6.80;6.10;;;;;;;32.34;37.63;97132.77;109744;1251;71544;-69
2022/08/19 08:09:35;;;;;;;7.30;6.40;;;;;;;31.96;37.53;97138.92;109709;1250;59713;-71
2022/08/19 08:12:11;;;;;;;6.80;5.50;;;;;;;32.03;37.57;97139.91;109694;1250;59701;-70
2022/08/19 08:15:06;;;;;;;8.00;6.90;;;;;;;32.10;37.02;97138.20;110018;1249;70597;-70
2022/08/19 08:17:36;;;;;;;6.80;6.10;;;;;;;32.36;36.25;97136.50;110048;1250;69458;-71
2022/08/19 08:20:17;;;;;;;8.70;6.30;;;;;;;32.50;35.48;97136.58;109987;1250;69930;-71
2022/08/19 08:25:37;;;;;;;6.30;5.70;;;;;;;32.15;36.51;97134.94;110060;1249;59720;-70
2022/08/19 08:28:07;;;;;;;7.30;6.10;;;;;;;32.51;36.30;97132.95;110009;1250;72210;-70
2022/08/19 08:30:41;;;;;;;7.20;5.70;;;;;;;32.98;36.04;97136.55;109985;1250;69448;-71
2022/08/19 08:33:14;;;;;;;6.10;5.50;;;;;;;33.19;35.10;97130.98;110037;1248;68755;-70
2022/08/19 08:35:45;;;;;;;5.70;5.00;;;;;;;33.20;35.29;97127.79;110023;1247;59767;-70
2022/08/19 08:38:17;;;;;;;7.00;6.40;;;;;;;33.40;34.53;97128.71;110013;1248;59765;-72
2022/08/19 08:40:56;;;;;;;6.40;5.80;;;;;;;33.37;34.70;97127.02;110003;1248;70709;-71
2022/08/19 08:43:28;;;;;;;8.50;6.10;;;;;;;33.64;34.17;97128.92;110007;1250;69455;-70
2022/08/19 08:46:02;;;;;;;7.40;6.10;;;;;;;32.81;35.04;97123.65;109651;1250;69553;-70
2022/08/19 08:48:54;;;;;;;5.70;5.20;;;;;;;33.44;34.28;97129.65;110023;1248;59751;-70
2022/08/19 08:51:32;;;;;;;6.50;5.80;;;;;;;34.04;33.75;97122.16;110083;1247;59749;-71
2022/08/19 08:54:06;;;;;;;6.00;5.20;;;;;;;34.31;32.85;97130.05;110040;1248;71934;-71
2022/08/19 08:56:43;;;;;;;6.00;5.20;;;;;;;33.56;33.24;97132.46;110580;1248;69914;-71
2022/08/19 08:59:27;;;;;;;5.40;4.90;;;;;;;33.77;32.86;97131.24;110314;1248;68589;-71
2022/08/19 09:01:56;;;;;;;7.80;6.20;;;;;;;33.85;32.65;97130.95;109756;1250;59716;-70
2022/08/19 09:04:26;;;;;;;7.40;5.10;;;;;;;33.73;32.06;97129.16;110048;1247;59695;-71
2022/08/19 09:07:07;;;;;;;6.60;5.70;;;;;;;33.82;32.53;97127.35;110076;1247;71820;-70
2022/08/19 09:10:37;;;;;;;7.20;5.90;;;;;;;33.56;32.97;97125.91;110022;1247;69406;-71
2022/08/19 09:13:34;;;;;;;5.70;5.20;;;;;;;34.08;32.20;97120.36;109147;1257;69456;-72
2022/08/19 09:16:15;;;;;;;6.80;5.60;;;;;;;34.43;32.17;97115.11;110062;1248;59720;-70
2022/08/19 09:18:54;;;;;;;7.00;5.70;;;;;;;35.30;32.44;97115.34;110060;1249;59702;-71
2022/08/19 09:21:25;;;;;;;5.30;4.60;;;;;;;35.88;30.71;97113.59;110109;1247;71306;-71
2022/08/19 09:24:04;;;;;;;5.80;5.20;;;;;;;36.45;30.91;97110.64;110139;1247;68028;-70
2022/08/19 09:26:34;;;;;;;5.40;4.80;;;;;;;36.90;29.99;97110.24;110158;1247;68698;-72
2022/08/19 09:29:22;;;;;;;6.20;5.60;;;;;;;37.11;28.54;97111.52;110135;1247;59686;-71
2022/08/19 09:31:50;;;;;;;5.60;5.10;;;;;;;36.47;27.63;97105.73;110075;1247;59688;-69
2022/08/19 09:34:19;;;;;;;5.50;4.60;;;;;;;36.45;28.35;97101.39;110022;1250;71958;-72
2022/08/19 09:36:52;;;;;;;7.30;6.00;;;;;;;36.55;28.47;97100.55;110022;1250;68984;-71
2022/08/19 09:39:22;;;;;;;6.50;5.30;;;;;;;36.67;28.25;97096.48;110028;1249;70084;-71
2022/08/19 09:41:52;;;;;;;5.30;4.80;;;;;;;36.72;28.03;97097.18;110047;1249;59754;-69
2022/08/19 09:44:21;;;;;;;4.70;4.30;;;;;;;37.08;27.62;97102.72;110091;1247;59675;-70
2022/08/19 09:46:50;;;;;;;6.40;5.80;;;;;;;37.00;26.92;97100.88;110034;1247;71572;-71
2022/08/19 09:49:23;;;;;;;6.40;5.60;;;;;;;36.86;26.99;97101.62;110081;1247;68454;-71
2022/08/19 09:51:55;;;;;;;5.80;4.30;;;;;;;36.59;26.65;97100.23;110040;1247;69329;-71
2022/08/19 09:54:25;;;;;;;5.80;4.50;;;;;;;37.15;26.71;97099.65;110031;1247;59773;-71
2022/08/19 09:56:57;;;;;;;7.00;4.80;;;;;;;37.16;26.05;97098.93;110066;1248;59770;-71
2022/08/19 09:59:27;;;;;;;4.90;4.40;;;;;;;37.59;26.37;97099.45;110059;1248;71646;-72
2022/08/19 10:02:00;;;;;;;6.70;6.10;;;;;;;37.99;26.05;97096.55;110165;1249;69873;-71
2022/08/19 10:07:25;;;;;;;5.00;4.50;;;;;;;38.67;24.10;97090.95;110018;1250;59770;-72
2022/08/19 10:10:09;;;;;;;6.90;5.60;;;;;;;38.62;23.91;97088.58;110035;1249;59681;-71
2022/08/19 10:12:37;;;;;;;4.80;4.30;;;;;;;38.81;23.15;97088.31;110053;1250;70797;-72
2022/08/19 10:15:07;;;;;;;5.50;5.00;;;;;;;38.68;23.61;97086.71;109862;1250;68939;-72
2022/08/19 10:17:37;;;;;;;6.60;4.90;;;;;;;38.87;23.96;97085.73;110070;1250;69916;-71
2022/08/19 10:20:06;;;;;;;5.90;4.90;;;;;;;38.89;23.49;97080.41;110063;1250;59617;-72
2022/08/19 10:22:37;;;;;;;5.30;4.20;;;;;;;38.72;23.26;97074.48;110079;1248;59709;-72
2022/08/19 10:25:06;;;;;;;5.00;4.50;;;;;;;38.94;23.33;97073.88;110039;1248;72093;-72
2022/08/19 10:27:35;;;;;;;5.00;4.20;;;;;;;39.08;23.01;97074.79;110039;1249;68657;-71
2022/08/19 10:30:08;;;;;;;5.40;3.90;;;;;;;38.61;23.34;97076.42;110007;1249;68995;-71
2022/08/19 10:32:38;;;;;;;5.40;4.30;;;;;;;38.93;24.05;97076.17;110051;1247;59727;-72
2022/08/19 10:35:14;;;;;;;5.00;4.50;;;;;;;39.14;22.93;97077.36;109835;1248;59740;-71
2022/08/19 10:37:49;;;;;;;5.50;4.40;;;;;;;38.94;24.19;97077.77;110033;1248;71038;-71
2022/08/19 10:40:31;;;;;;;5.20;4.70;;;;;;;39.66;23.33;97077.61;110009;1249;68615;-72
2022/08/19 10:43:00;;;;;;;5.20;4.70;;;;;;;39.91;23.47;97075.39;110001;1249;69485;-72
2022/08/19 10:45:28;;;;;;;6.20;5.20;;;;;;;39.82;23.80;97076.59;110515;1248;59701;-71
2022/08/19 10:47:57;;;;;;;5.40;4.90;;;;;;;40.29;22.95;97072.55;110860;1250;59625;-71
2022/08/19 10:53:14;;;;;;;;;;;;;;;40.07;22.87;97066.29;110116;1250;69819;-72
2022/08/19 10:58:31;;;;;;;5.80;4.00;;;;;;;39.95;23.09;97068.69;109757;1250;59753;-72
2022/08/19 11:01:01;;;;;;;5.60;4.30;;;;;;;40.44;22.53;97069.95;109711;1249;59644;-72
2022/08/19 11:03:30;;;;;;;4.70;3.80;;;;;;;40.57;21.66;97066.33;109695;1250;71717;-71
2022/08/19 11:06:05;;;;;;;5.90;4.50;;;;;;;40.61;21.98;97064.03;109709;1250;70155;-71
2022/08/19 11:08:37;;;;;;;5.60;4.50;;;;;;;40.45;22.76;97057.64;109653;1250;69433;-71
2022/08/19 11:11:07;;;;;;;5.10;4.20;;;;;;;40.30;22.97;97058.09;109740;1250;59745;-70
2022/08/19 11:13:39;;;;;;;5.60;4.00;;;;;;;40.84;21.97;97052.36;109814;1250;59716;-71
2022/08/19 11:16:13;;;;;;;7.20;4.40;;;;;;;40.41;21.75;97050.46;109646;1251;71515;-71
2022/08/19 11:18:45;;;;;;;5.30;4.80;;;;;;;40.45;22.12;97047.02;109704;1250;69338;-72
2022/08/19 11:21:19;;;;;;;5.40;4.50;;;;;;;39.79;22.43;97045.27;109640;1250;68536;-72
2022/08/19 11:23:51;;;;;;;4.80;4.00;;;;;;;40.08;23.77;97043.57;110082;1247;59730;-71
2022/08/19 11:26:21;;;;;;;4.60;4.20;;;;;;;40.81;22.07;97035.06;110045;1247;59753;-72
2022/08/19 11:28:53;;;;;;;4.50;3.90;;;;;;;40.79;22.28;97035.41;110034;1250;70568;-72
2022/08/19 11:31:25;;;;;;;5.80;4.60;;;;;;;40.83;22.62;97025.92;110091;1247;68658;-72
2022/08/19 11:34:02;;;;;;;5.90;4.40;;;;;;;40.14;23.09;97020.46;109851;1250;69396;-72
2022/08/19 11:36:32;;;;;;;7.30;4.80;;;;;;;40.97;22.15;97018.44;110081;1247;59757;-71
2022/08/19 11:39:03;;;;;;;5.90;4.80;;;;;;;40.72;21.42;97013.54;110148;1247;59705;-71
2022/08/19 11:41:32;;;;;;;5.10;4.30;;;;;;;40.17;22.00;97011.77;110050;1247;71903;-70
2022/08/19 11:44:02;;;;;;;6.20;5.10;;;;;;;39.58;23.59;97011.27;110020;1247;69210;-72
2022/08/19 11:46:31;;;;;;;4.80;4.30;;;;;;;39.55;24.42;97008.45;110066;1246;68401;-71
2022/08/19 11:49:01;;;;;;;4.50;4.10;;;;;;;39.73;24.10;97006.30;110089;1247;59764;-73
2022/08/19 11:51:29;;;;;;;6.70;4.40;;;;;;;39.51;24.05;97002.02;110177;1247;59675;-70
2022/08/19 11:53:59;;;;;;;5.50;4.50;;;;;;;40.03;24.08;97005.89;110033;1247;71711;-70
2022/08/19 11:56:28;;;;;;;5.80;3.90;;;;;;;40.37;23.87;97002.39;110000;1247;68377;-71
2022/08/19 11:59:00;;;;;;;5.60;4.00;;;;;;;40.23;23.43;96997.83;110048;1247;70051;-69
2022/08/19 12:01:29;;;;;;;6.70;4.50;;;;;;;40.53;22.88;96994.20;110037;1247;59722;-71
2022/08/19 12:03:58;;;;;;;4.90;4.40;;;;;;;40.75;23.50;96993.66;110063;1250;59691;-70
2022/08/19 12:06:31;;;;;;;4.90;3.90;;;;;;;40.74;22.17;96991.91;110085;1247;71355;-70
2022/08/19 12:09:05;;;;;;;5.20;4.00;;;;;;;41.16;22.58;96993.44;110058;1247;69562;-70
2022/08/19 12:11:38;;;;;;;6.20;4.60;;;;;;;41.16;22.41;96993.05;110072;1247;69003;-71
2022/08/19 12:14:13;;;;;;;6.50;4.70;;;;;;;40.79;22.99;96994.87;109720;1250;59773;-71